Time;durP1;ratioP1;P1;durP2;ratioP2;P2;SDS_P1;SDS_P2;PMS_P1;PMS_P2;Temp;Humidity;BMP_temperature;BMP_pressure;BME280_temperature;BME280_humidity;BME280_pressure;Samples;Min_cycle;Max_cycle;Signal;HPM_P1;HPM_P2
2022/08/09 00:00:24;;;;;;;7.95;6.55;;;27.00;60.20;;;;;;5099456;28;20020;-78
2022/08/09 00:02:50;;;;;;;7.63;6.25;;;27.10;60.20;;;;;;5094271;28;20490;-78
2022/08/09 00:05:22;;;;;;;7.07;5.88;;;27.00;60.30;;;;;;5106504;28;20485;-77
2022/08/09 00:07:48;;;;;;;7.78;6.15;;;27.10;60.20;;;;;;5099536;28;20024;-78
2022/08/09 00:10:14;;;;;;;9.15;6.50;;;27.10;60.20;;;;;;5093544;28;20039;-77
2022/08/09 00:12:39;;;;;;;8.05;6.65;;;27.10;60.10;;;;;;5097698;28;20040;-77
2022/08/09 00:15:05;;;;;;;8.77;7.25;;;27.30;59.90;;;;;;5093382;28;20031;-77
2022/08/09 00:17:31;;;;;;;8.80;6.68;;;27.30;59.90;;;;;;5112983;28;20039;-78
2022/08/09 00:19:57;;;;;;;8.23;6.60;;;27.10;60.10;;;;;;5108170;28;20095;-77
2022/08/09 00:22:23;;;;;;;8.20;6.50;;;27.00;60.70;;;;;;5113073;28;20102;-78
2022/08/09 00:24:48;;;;;;;10.35;6.47;;;27.10;60.50;;;;;;5088126;28;20478;-84
2022/08/09 00:27:14;;;;;;;6.80;5.68;;;27.00;60.50;;;;;;5113064;28;20028;-79
2022/08/09 00:29:40;;;;;;;6.78;5.20;;;27.00;60.30;;;;;;5106977;28;20028;-78
2022/08/09 00:32:06;;;;;;;7.45;5.10;;;26.90;60.30;;;;;;5095580;28;20162;-79
2022/08/09 00:34:31;;;;;;;7.78;4.90;;;26.90;60.40;;;;;;5100029;28;20023;-77
2022/08/09 00:36:57;;;;;;;7.10;5.20;;;26.80;60.60;;;;;;5108479;28;20023;-77
2022/08/09 00:39:23;;;;;;;6.63;5.50;;;26.70;61.50;;;;;;5093470;28;20027;-79
2022/08/09 00:41:49;;;;;;;8.35;5.40;;;26.70;61.10;;;;;;5106898;28;20488;-79
2022/08/09 00:44:15;;;;;;;6.85;5.47;;;26.80;61.10;;;;;;5097857;28;20099;-77
2022/08/09 00:46:42;;;;;;;7.93;5.00;;;27.00;60.80;;;;;;5101046;28;20123;-78
2022/08/09 00:49:08;;;;;;;8.50;5.75;;;27.00;60.50;;;;;;5092455;28;20041;-78
2022/08/09 00:51:35;;;;;;;7.57;5.60;;;27.10;60.60;;;;;;5111293;28;20042;-77
2022/08/09 00:54:01;;;;;;;8.65;5.57;;;27.20;60.20;;;;;;5107610;28;20130;-80
2022/08/09 00:56:29;;;;;;;7.15;5.63;;;27.30;60.10;;;;;;5080629;28;20418;-77
2022/08/09 00:58:55;;;;;;;8.48;6.35;;;27.30;59.90;;;;;;5093403;28;20035;-77
2022/08/09 01:01:26;;;;;;;6.65;5.72;;;27.30;59.90;;;;;;5095865;28;20469;-77
2022/08/09 01:04:03;;;;;;;8.50;6.15;;;27.30;59.90;;;;;;5094782;28;20024;-78
2022/08/09 01:06:29;;;;;;;8.40;5.53;;;27.30;59.80;;;;;;5095903;28;20060;-79
2022/08/09 01:09:06;;;;;;;8.75;6.00;;;27.40;59.60;;;;;;5095752;28;20497;-78
2022/08/09 01:11:32;;;;;;;8.50;5.32;;;27.30;60.00;;;;;;5100339;28;20103;-79
2022/08/09 01:14:05;;;;;;;6.72;5.20;;;27.30;60.00;;;;;;5092459;28;20030;-77
2022/08/09 01:16:43;;;;;;;5.60;5.00;;;27.30;60.10;;;;;;5097617;28;20035;-77
2022/08/09 01:19:40;;;;;;;8.05;5.60;;;27.10;60.70;;;;;;5093566;28;20028;-79
2022/08/09 01:22:26;;;;;;;8.95;5.70;;;27.00;60.80;;;;;;5102521;28;20440;-78
2022/08/09 01:25:25;;;;;;;8.73;5.80;;;27.10;60.80;;;;;;5097069;28;20360;-78
2022/08/09 01:27:53;;;;;;;9.18;5.60;;;27.30;60.50;;;;;;5093132;28;20021;-78
2022/08/09 01:30:21;;;;;;;5.95;5.05;;;27.30;60.20;;;;;;5107319;28;20053;-77
2022/08/09 01:32:50;;;;;;;8.60;5.25;;;27.30;60.50;;;;;;5106720;28;20387;-78
2022/08/09 01:35:34;;;;;;;6.32;5.10;;;27.00;60.80;;;;;;5100254;28;20028;-77
2022/08/09 01:38:05;;;;;;;9.10;5.38;;;27.00;61.00;;;;;;5111521;28;20016;-77
2022/08/09 01:40:32;;;;;;;6.63;5.70;;;27.10;60.60;;;;;;5111274;28;20016;-78
2022/08/09 01:42:59;;;;;;;6.55;5.30;;;27.20;60.50;;;;;;5117241;28;20050;-78
2022/08/09 01:45:26;;;;;;;7.40;5.90;;;27.20;60.50;;;;;;5113494;28;20494;-79
2022/08/09 01:47:54;;;;;;;6.20;5.32;;;27.30;60.40;;;;;;5096977;28;20025;-79
2022/08/09 01:50:23;;;;;;;7.57;6.00;;;27.20;60.60;;;;;;5096250;28;20500;-78
2022/08/09 01:52:52;;;;;;;8.23;5.20;;;27.20;60.60;;;;;;5115201;28;20043;-78
2022/08/09 01:55:19;;;;;;;6.88;5.28;;;27.20;60.80;;;;;;5106737;28;20363;-77
2022/08/09 01:57:48;;;;;;;7.72;5.68;;;27.20;60.60;;;;;;5091741;28;20032;-78
2022/08/09 02:00:14;;;;;;;6.15;5.55;;;27.10;60.50;;;;;;5088949;28;20428;-77
2022/08/09 02:02:45;;;;;;;8.05;6.10;;;27.00;60.40;;;;;;5098792;28;20493;-78
2022/08/09 02:05:13;;;;;;;8.10;6.43;;;26.90;60.50;;;;;;5096053;28;20024;-80
2022/08/09 02:07:52;;;;;;;8.88;6.05;;;26.60;61.20;;;;;;5113074;28;20050;-78
2022/08/09 02:10:29;;;;;;;7.43;6.45;;;26.50;61.70;;;;;;5114520;28;20360;-80
2022/08/09 02:12:57;;;;;;;7.30;6.60;;;26.60;61.40;;;;;;5096344;28;20482;-78
2022/08/09 02:15:25;;;;;;;7.75;6.35;;;26.70;61.40;;;;;;5098705;28;20024;-80
2022/08/09 02:17:52;;;;;;;8.55;7.15;;;26.80;61.00;;;;;;5116483;28;20031;-78
2022/08/09 02:20:18;;;;;;;10.57;7.35;;;27.00;61.00;;;;;;5115910;28;20024;-78
2022/08/09 02:22:52;;;;;;;7.32;6.45;;;27.00;60.80;;;;;;5115619;28;20024;-79
2022/08/09 02:25:22;;;;;;;8.48;6.30;;;27.00;60.60;;;;;;5102765;28;20016;-80
2022/08/09 02:27:57;;;;;;;9.40;6.70;;;26.90;61.00;;;;;;5110434;28;20027;-78
2022/08/09 02:30:23;;;;;;;9.35;6.53;;;26.80;61.00;;;;;;5097641;28;20102;-77
2022/08/09 02:32:50;;;;;;;9.65;6.53;;;26.80;61.10;;;;;;5091322;28;20032;-78
2022/08/09 02:35:24;;;;;;;9.50;6.90;;;26.70;61.20;;;;;;5098715;28;20099;-79
2022/08/09 02:37:54;;;;;;;8.88;6.78;;;26.50;61.60;;;;;;5077693;28;20032;-79
2022/08/09 02:40:21;;;;;;;11.88;7.35;;;26.50;61.70;;;;;;5081064;28;20028;-79
2022/08/09 02:42:51;;;;;;;10.55;7.50;;;26.50;61.50;;;;;;5095361;28;20032;-79
2022/08/09 02:45:25;;;;;;;7.90;6.82;;;26.60;61.40;;;;;;5097189;28;20024;-78
2022/08/09 02:47:53;;;;;;;9.45;6.97;;;26.50;61.30;;;;;;5090981;28;20036;-77
2022/08/09 02:50:29;;;;;;;10.82;7.22;;;26.50;61.30;;;;;;5105399;28;20155;-79
2022/08/09 02:53:01;;;;;;;8.55;7.55;;;26.60;61.50;;;;;;5081874;28;20040;-77
2022/08/09 02:55:28;;;;;;;9.60;8.00;;;26.50;61.50;;;;;;5097717;28;20157;-79
2022/08/09 02:57:57;;;;;;;10.75;7.78;;;26.50;61.50;;;;;;5084712;28;20058;-78
2022/08/09 03:00:24;;;;;;;11.13;7.47;;;26.50;61.50;;;;;;5111818;28;20027;-79
2022/08/09 03:02:53;;;;;;;12.60;8.85;;;26.40;61.80;;;;;;5077497;28;20028;-78
2022/08/09 03:05:20;;;;;;;12.50;8.30;;;26.60;61.50;;;;;;5095332;28;20032;-79
2022/08/09 03:07:48;;;;;;;11.48;8.68;;;26.60;61.30;;;;;;5095938;28;20024;-81
2022/08/09 03:10:15;;;;;;;11.40;8.63;;;26.70;61.20;;;;;;5094482;28;20028;-77
2022/08/09 03:12:42;;;;;;;11.45;8.40;;;26.60;61.30;;;;;;5096856;28;20031;-77
2022/08/09 03:15:10;;;;;;;11.10;8.00;;;26.70;61.30;;;;;;5094947;28;20028;-79
2022/08/09 03:17:36;;;;;;;11.38;8.25;;;26.60;61.20;;;;;;5095067;28;20055;-78
2022/08/09 03:20:04;;;;;;;13.55;8.52;;;26.70;61.40;;;;;;5094705;28;20024;-77
2022/08/09 03:22:32;;;;;;;11.07;8.20;;;26.70;61.10;;;;;;5081042;28;20031;-77
2022/08/09 03:24:58;;;;;;;11.45;8.88;;;26.80;61.20;;;;;;5114215;28;20051;-77
2022/08/09 03:27:26;;;;;;;9.75;8.27;;;26.80;60.90;;;;;;5093633;28;20031;-78
2022/08/09 03:29:53;;;;;;;10.43;7.78;;;26.80;61.10;;;;;;5094763;28;20474;-79
2022/08/09 03:32:20;;;;;;;10.43;9.27;;;26.70;61.40;;;;;;5096226;28;20043;-77
2022/08/09 03:34:46;;;;;;;12.85;9.30;;;26.60;61.40;;;;;;5115348;28;20024;-79
2022/08/09 03:37:12;;;;;;;11.93;9.30;;;26.60;61.50;;;;;;5095276;28;20355;-78
2022/08/09 03:39:38;;;;;;;11.68;8.90;;;26.60;61.50;;;;;;5093981;28;20062;-79
2022/08/09 03:42:04;;;;;;;11.13;8.95;;;26.70;61.60;;;;;;5081616;28;20028;-78
2022/08/09 03:44:30;;;;;;;10.60;9.43;;;26.60;61.40;;;;;;5095006;28;20100;-79
2022/08/09 03:46:55;;;;;;;10.82;9.45;;;26.60;61.60;;;;;;5093983;28;20102;-78
2022/08/09 03:49:25;;;;;;;12.07;9.13;;;26.70;61.60;;;;;;5096546;28;20031;-77
2022/08/09 03:51:56;;;;;;;12.60;9.10;;;26.60;61.70;;;;;;5113693;28;20024;-79
2022/08/09 03:54:25;;;;;;;12.77;9.60;;;26.60;61.90;;;;;;5100795;28;20032;-78
2022/08/09 03:56:52;;;;;;;9.30;8.23;;;26.50;62.20;;;;;;5082728;28;20033;-78
2022/08/09 03:59:18;;;;;;;10.73;9.35;;;26.50;61.90;;;;;;5081665;28;20458;-78
2022/08/09 04:01:45;;;;;;;12.30;9.57;;;26.50;62.10;;;;;;5101668;28;20534;-79
2022/08/09 04:04:12;;;;;;;10.98;9.68;;;26.60;62.00;;;;;;5113013;28;20028;-79
2022/08/09 04:06:38;;;;;;;10.80;8.90;;;26.60;62.00;;;;;;5080013;28;20032;-78
2022/08/09 04:09:05;;;;;;;11.45;9.38;;;26.60;62.00;;;;;;5114704;28;20046;-78
2022/08/09 04:11:54;;;;;;;12.77;10.27;;;26.60;62.10;;;;;;5100403;28;20023;-77
2022/08/09 04:14:21;;;;;;;12.63;9.98;;;26.60;62.20;;;;;;5011398;28;20034;-76
2022/08/09 04:16:47;;;;;;;12.70;10.02;;;26.60;62.20;;;;;;5006916;28;20042;-79
2022/08/09 04:19:13;;;;;;;13.40;10.32;;;26.40;62.50;;;;;;4992615;28;20049;-79
2022/08/09 04:21:39;;;;;;;11.80;9.20;;;26.30;62.80;;;;;;4995777;28;20065;-78
2022/08/09 04:24:05;;;;;;;11.80;8.50;;;26.20;63.00;;;;;;4996348;28;20026;-79
2022/08/09 04:26:31;;;;;;;12.32;9.63;;;26.20;63.00;;;;;;5000982;28;20133;-80
2022/08/09 04:28:57;;;;;;;9.82;8.82;;;26.20;63.00;;;;;;4997990;28;20388;-79
2022/08/09 04:31:23;;;;;;;12.18;9.43;;;26.30;62.90;;;;;;4992721;28;20627;-76
2022/08/09 04:33:48;;;;;;;11.70;9.25;;;26.30;62.90;;;;;;4992548;28;20204;-78
2022/08/09 04:36:14;;;;;;;11.75;9.35;;;26.20;63.40;;;;;;4995654;28;20105;-77
2022/08/09 04:38:40;;;;;;;10.55;9.32;;;26.30;63.20;;;;;;5003581;28;20038;-80
2022/08/09 04:41:05;;;;;;;10.90;9.55;;;26.30;63.30;;;;;;5011383;28;20105;-79
2022/08/09 04:43:31;;;;;;;11.52;9.60;;;26.30;63.30;;;;;;4993514;28;20093;-79
2022/08/09 04:45:57;;;;;;;11.35;9.30;;;26.20;63.40;;;;;;4992122;28;20046;-78
2022/08/09 04:48:22;;;;;;;12.48;9.00;;;26.30;63.10;;;;;;4992514;28;20069;-80
2022/08/09 04:50:48;;;;;;;14.38;8.93;;;26.30;63.20;;;;;;5017107;28;20040;-82
2022/08/09 04:53:13;;;;;;;14.82;9.32;;;26.30;63.40;;;;;;5075255;28;20036;-77
2022/08/09 04:55:43;;;;;;;10.27;9.00;;;26.30;63.10;;;;;;5111434;28;20076;-79
2022/08/09 04:58:09;;;;;;;12.82;8.82;;;26.30;63.10;;;;;;5113706;28;20027;-78
2022/08/09 05:00:35;;;;;;;10.73;8.60;;;26.40;63.00;;;;;;5111633;28;20025;-76
2022/08/09 05:03:05;;;;;;;10.00;7.90;;;26.40;62.90;;;;;;5096981;28;20356;-77
2022/08/09 05:05:31;;;;;;;9.57;7.90;;;26.60;63.10;;;;;;5098476;28;20015;-77
2022/08/09 05:07:57;;;;;;;9.77;8.18;;;26.70;62.50;;;;;;5113432;28;20020;-78
2022/08/09 05:10:23;;;;;;;9.23;8.10;;;26.60;62.40;;;;;;5110693;28;20080;-83
2022/08/09 05:12:49;;;;;;;10.35;8.07;;;26.70;62.20;;;;;;5095163;28;20410;-79
2022/08/09 05:15:18;;;;;;;10.75;7.88;;;26.80;61.80;;;;;;5099601;28;20433;-84
2022/08/09 05:17:43;;;;;;;8.95;7.45;;;26.80;61.40;;;;;;5092390;28;20036;-80
2022/08/09 05:20:09;;;;;;;11.13;7.60;;;26.80;61.60;;;;;;5095498;28;20030;-77
2022/08/09 05:22:35;;;;;;;9.60;7.63;;;26.90;61.20;;;;;;5095927;28;20518;-79
2022/08/09 05:25:02;;;;;;;11.82;7.63;;;27.00;61.20;;;;;;5098225;28;20031;-78
2022/08/09 05:27:28;;;;;;;11.23;8.00;;;27.20;60.80;;;;;;5086672;28;20031;-78
2022/08/09 05:29:54;;;;;;;9.80;7.85;;;27.40;60.60;;;;;;5095357;28;20081;-79
2022/08/09 05:32:20;;;;;;;10.55;7.10;;;27.60;60.20;;;;;;5090643;28;20044;-78
2022/08/09 05:34:45;;;;;;;10.68;7.43;;;27.70;60.00;;;;;;5095711;28;20024;-77
2022/08/09 05:37:12;;;;;;;8.35;7.20;;;27.70;60.10;;;;;;5095523;28;20026;-79
2022/08/09 05:39:39;;;;;;;10.85;6.93;;;27.70;59.90;;;;;;5112399;28;20429;-78
2022/08/09 05:42:05;;;;;;;9.82;6.70;;;27.70;59.90;;;;;;5093279;28;20034;-77
2022/08/09 05:44:31;;;;;;;11.15;6.35;;;27.70;60.10;;;;;;5096656;28;20103;-77
2022/08/09 05:46:57;;;;;;;9.10;6.85;;;27.90;60.10;;;;;;5107244;28;20023;-79
2022/08/09 05:49:23;;;;;;;9.27;6.57;;;28.00;59.70;;;;;;5111613;28;20500;-78
2022/08/09 05:51:48;;;;;;;10.48;6.65;;;28.10;59.50;;;;;;5108284;28;20074;-76
2022/08/09 05:54:14;;;;;;;9.55;5.90;;;28.10;59.90;;;;;;5099106;28;20028;-77
2022/08/09 05:56:40;;;;;;;7.50;5.82;;;28.20;59.60;;;;;;5112231;28;20101;-80
2022/08/09 05:59:06;;;;;;;9.55;5.70;;;28.40;59.30;;;;;;5111605;28;20016;-76
2022/08/09 06:01:31;;;;;;;9.63;5.78;;;28.60;59.10;;;;;;5111090;28;20099;-76
2022/08/09 06:03:57;;;;;;;8.18;6.32;;;28.60;59.10;;;;;;5111916;28;20115;-79
2022/08/09 06:06:24;;;;;;;7.38;5.95;;;28.60;59.20;;;;;;5111964;28;20050;-76
2022/08/09 06:08:51;;;;;;;7.22;5.65;;;28.70;59.00;;;;;;5111521;28;20432;-77
2022/08/09 06:11:16;;;;;;;8.90;5.32;;;28.80;58.90;;;;;;5110799;28;20019;-81
2022/08/09 06:13:42;;;;;;;7.60;5.78;;;28.80;58.30;;;;;;5108642;28;20040;-77
2022/08/09 06:16:09;;;;;;;6.68;5.70;;;28.70;58.10;;;;;;5110944;28;20040;-76
2022/08/09 06:18:36;;;;;;;6.22;5.05;;;28.80;58.20;;;;;;5111666;28;20023;-77
2022/08/09 06:21:03;;;;;;;11.35;5.40;;;29.00;58.00;;;;;;5115718;28;20159;-77
2022/08/09 06:23:31;;;;;;;7.15;5.15;;;29.10;57.90;;;;;;5116147;28;20374;-75
2022/08/09 06:25:57;;;;;;;9.15;4.80;;;29.40;57.10;;;;;;5115179;28;20049;-76
2022/08/09 06:28:23;;;;;;;8.00;5.15;;;29.40;56.80;;;;;;5115892;28;20474;-75
2022/08/09 06:30:49;;;;;;;6.47;5.10;;;29.30;56.90;;;;;;5115166;28;20043;-76
2022/08/09 06:33:14;;;;;;;8.98;4.70;;;29.20;57.50;;;;;;5096806;28;20027;-77
2022/08/09 06:35:40;;;;;;;5.95;4.70;;;29.30;56.60;;;;;;5111420;28;20032;-75
2022/08/09 06:38:06;;;;;;;8.85;5.22;;;29.30;56.90;;;;;;5115174;28;20117;-78
2022/08/09 06:40:32;;;;;;;7.22;4.70;;;29.30;56.80;;;;;;5095451;28;20020;-75
2022/08/09 06:42:59;;;;;;;7.22;4.80;;;29.30;56.50;;;;;;5114375;28;20028;-75
2022/08/09 06:45:26;;;;;;;7.07;4.78;;;29.50;56.70;;;;;;4758968;28;9999734;-75
2022/08/09 06:47:52;;;;;;;7.40;4.70;;;29.80;55.70;;;;;;5110332;28;20557;-76
2022/08/09 06:50:17;;;;;;;8.73;5.00;;;29.90;55.50;;;;;;5093328;28;20036;-76
2022/08/09 06:52:47;;;;;;;8.57;4.82;;;30.00;55.00;;;;;;5080781;28;20040;-76
2022/08/09 06:55:18;;;;;;;7.07;5.47;;;29.60;56.30;;;;;;5104116;28;20016;-75
2022/08/09 06:57:44;;;;;;;8.80;5.25;;;29.80;56.10;;;;;;5108434;28;20088;-79
2022/08/09 07:00:11;;;;;;;7.28;4.85;;;30.10;56.10;;;;;;5083852;28;20028;-78
2022/08/09 07:02:37;;;;;;;7.57;4.93;;;30.20;54.60;;;;;;5094114;28;20028;-78
2022/08/09 07:05:03;;;;;;;9.95;7.88;;;30.10;54.80;;;;;;5095701;28;20020;-76
2022/08/09 07:07:35;;;;;;;8.38;5.00;;;30.30;55.10;;;;;;5100141;28;20102;-78
2022/08/09 07:10:01;;;;;;;7.47;5.35;;;30.20;54.10;;;;;;5107607;28;20028;-77
2022/08/09 07:12:27;;;;;;;6.97;5.15;;;30.10;55.70;;;;;;5115354;28;20456;-76
2022/08/09 07:14:52;;;;;;;9.45;4.93;;;30.30;54.80;;;;;;5113508;28;20057;-76
2022/08/09 07:17:19;;;;;;;7.40;4.80;;;30.40;54.70;;;;;;5112048;28;20023;-76
2022/08/09 07:19:45;;;;;;;8.80;5.32;;;30.30;54.70;;;;;;5108657;28;20020;-76
2022/08/09 07:22:11;;;;;;;7.25;4.88;;;30.40;54.60;;;;;;5091953;28;20386;-89
2022/08/09 07:24:37;;;;;;;7.18;4.57;;;30.40;54.80;;;;;;5098322;28;20446;-80
2022/08/09 07:27:03;;;;;;;7.53;5.00;;;30.40;54.20;;;;;;5107934;28;20467;-81
2022/08/09 07:29:34;;;;;;;10.13;5.00;;;30.40;54.90;;;;;;5114650;28;20035;-80
2022/08/09 07:32:02;;;;;;;6.75;4.80;;;30.60;54.20;;;;;;5113993;28;20024;-75
2022/08/09 07:34:28;;;;;;;7.93;5.13;;;30.90;54.80;;;;;;5114411;28;20034;-75
2022/08/09 07:36:54;;;;;;;6.80;4.72;;;31.00;54.00;;;;;;5114633;28;20031;-74
2022/08/09 07:39:20;;;;;;;7.93;5.47;;;30.80;53.90;;;;;;5112260;28;20142;-75
2022/08/09 07:41:46;;;;;;;8.07;4.68;;;31.00;53.90;;;;;;5113852;28;20530;-83
2022/08/09 07:44:11;;;;;;;6.70;4.40;;;31.20;54.20;;;;;;5107501;28;20035;-83
2022/08/09 07:46:37;;;;;;;7.35;4.80;;;31.30;53.70;;;;;;5094709;28;20084;-74
2022/08/09 07:49:03;;;;;;;6.38;4.85;;;31.10;53.50;;;;;;5112488;28;20102;-74
2022/08/09 07:51:29;;;;;;;5.93;4.82;;;31.40;53.50;;;;;;5112704;28;20050;-75
2022/08/09 07:53:57;;;;;;;7.03;5.07;;;31.70;53.00;;;;;;5114924;27;20044;-74
2022/08/09 07:56:24;;;;;;;8.10;4.53;;;32.20;53.10;;;;;;5114148;28;20020;-78
2022/08/09 07:58:50;;;;;;;8.63;4.68;;;32.10;52.60;;;;;;5109935;28;20024;-75
2022/08/09 08:01:16;;;;;;;9.50;4.90;;;32.10;52.70;;;;;;5110541;28;20019;-73
2022/08/09 08:03:42;;;;;;;7.70;5.07;;;32.20;52.60;;;;;;5108897;28;20382;-81
2022/08/09 08:06:08;;;;;;;7.07;5.13;;;32.40;52.80;;;;;;5113695;28;20139;-78
2022/08/09 08:08:33;;;;;;;7.45;4.80;;;32.20;52.80;;;;;;5112707;28;20490;-76
2022/08/09 08:10:59;;;;;;;6.55;4.65;;;32.10;52.30;;;;;;5113435;28;20072;-76
2022/08/09 08:13:25;;;;;;;6.88;4.90;;;32.00;52.60;;;;;;5107436;28;20050;-76
2022/08/09 08:15:51;;;;;;;9.15;5.15;;;32.10;51.90;;;;;;5098454;28;20031;-77
2022/08/09 08:18:18;;;;;;;7.68;5.30;;;32.10;52.80;;;;;;5096406;28;20839;-76
2022/08/09 08:20:44;;;;;;;6.80;4.40;;;32.10;52.70;;;;;;5094587;28;20028;-78
2022/08/09 08:23:11;;;;;;;5.32;4.78;;;31.80;52.10;;;;;;5100067;28;20105;-77
2022/08/09 08:25:37;;;;;;;5.78;4.72;;;31.20;52.70;;;;;;5109010;28;20116;-78
2022/08/09 08:28:03;;;;;;;8.48;4.65;;;31.50;52.70;;;;;;5114083;28;20020;-78
2022/08/09 08:30:29;;;;;;;5.47;4.47;;;31.80;52.20;;;;;;5114902;28;20019;-81
2022/08/09 08:32:55;;;;;;;6.70;4.80;;;31.00;53.00;;;;;;5112562;28;20080;-77
2022/08/09 08:35:22;;;;;;;6.15;4.28;;;30.90;55.20;;;;;;5112094;28;20537;-76
2022/08/09 08:37:47;;;;;;;6.35;4.88;;;31.20;53.20;;;;;;5112668;28;20028;-76
2022/08/09 08:40:14;;;;;;;7.80;4.80;;;31.50;53.20;;;;;;5112241;28;20016;-78
2022/08/09 08:42:42;;;;;;;9.95;5.15;;;31.30;52.40;;;;;;5113244;28;20055;-78
2022/08/09 08:45:10;;;;;;;7.72;5.00;;;30.60;54.10;;;;;;5113656;28;20414;-78
2022/08/09 08:47:36;;;;;;;6.75;4.90;;;31.10;54.20;;;;;;5112425;28;20019;-79
2022/08/09 08:50:02;;;;;;;6.25;4.85;;;31.60;53.20;;;;;;4743280;27;10000147;-76
2022/08/09 08:52:29;;;;;;;7.68;5.03;;;31.70;52.30;;;;;;5132439;27;20496;-85
2022/08/09 08:54:56;;;;;;;8.63;5.40;;;32.00;52.10;;;;;;5114680;27;20026;-76
2022/08/09 08:57:23;;;;;;;8.93;4.70;;;32.10;51.50;;;;;;5134312;27;20043;-80
2022/08/09 08:59:51;;;;;;;7.85;4.78;;;32.40;51.20;;;;;;5133846;27;20106;-78
2022/08/09 09:02:22;;;;;;;7.25;5.20;;;32.50;51.20;;;;;;5133808;27;20102;-76
2022/08/09 09:04:51;;;;;;;7.20;4.75;;;32.90;51.70;;;;;;5134064;27;20031;-77
2022/08/09 09:07:18;;;;;;;6.90;4.80;;;33.20;50.80;;;;;;5134550;27;20024;-76
2022/08/09 09:09:48;;;;;;;7.80;5.07;;;33.30;50.80;;;;;;5134381;27;20486;-84
2022/08/09 09:12:20;;;;;;;6.70;4.68;;;33.30;51.10;;;;;;5115689;27;20062;-78
2022/08/09 09:14:47;;;;;;;8.73;5.10;;;33.50;50.80;;;;;;5134303;27;20538;-78
2022/08/09 09:17:13;;;;;;;8.27;5.22;;;33.10;50.70;;;;;;5134610;27;20016;-82
2022/08/09 09:19:39;;;;;;;8.73;5.00;;;33.20;51.90;;;;;;5115889;27;20076;-75
2022/08/09 09:22:12;;;;;;;8.40;4.70;;;33.00;50.50;;;;;;5134672;27;20016;-81
2022/08/09 09:24:52;;;;;;;7.35;4.70;;;32.80;50.60;;;;;;5115829;27;20023;-85
2022/08/09 09:27:24;;;;;;;7.28;4.90;;;32.80;50.80;;;;;;5115687;28;20507;-78
2022/08/09 09:29:50;;;;;;;6.40;4.90;;;32.90;50.00;;;;;;5134190;28;20031;-79
2022/08/09 09:32:28;;;;;;;8.85;4.80;;;32.90;50.30;;;;;;5133846;28;20035;-76
2022/08/09 09:35:08;;;;;;;6.53;4.40;;;33.00;50.30;;;;;;5134072;28;20410;-76
2022/08/09 09:37:35;;;;;;;6.47;4.60;;;33.30;50.20;;;;;;5133510;28;20377;-76
2022/08/09 09:40:01;;;;;;;7.35;4.85;;;33.30;50.30;;;;;;5133605;28;20025;-77
2022/08/09 09:42:28;;;;;;;8.13;5.05;;;33.50;51.20;;;;;;5133507;28;20019;-78
2022/08/09 09:45:03;;;;;;;8.25;5.03;;;33.50;50.60;;;;;;5133679;28;20351;-89
2022/08/09 09:47:28;;;;;;;8.40;4.70;;;33.60;50.00;;;;;;5133991;28;20015;-85
2022/08/09 09:49:56;;;;;;;6.35;4.68;;;33.40;48.90;;;;;;5133754;28;20535;-79
2022/08/09 09:52:23;;;;;;;8.02;4.63;;;33.20;50.10;;;;;;5133262;28;20106;-81
2022/08/09 09:54:49;;;;;;;6.40;4.88;;;33.30;49.40;;;;;;5135672;27;20039;-77
2022/08/09 09:57:23;;;;;;;6.97;4.68;;;33.30;49.10;;;;;;5137889;27;20019;-78
2022/08/09 09:59:51;;;;;;;11.05;10.07;;;33.70;49.70;;;;;;5137639;27;20529;-81
2022/08/09 10:02:18;;;;;;;6.72;4.70;;;33.90;48.50;;;;;;5138439;27;20024;-79
2022/08/09 10:04:44;;;;;;;6.45;4.78;;;33.90;49.60;;;;;;5137861;27;20031;-75
2022/08/09 10:07:25;;;;;;;6.57;4.45;;;33.70;49.90;;;;;;5138059;27;20419;-77
2022/08/09 10:09:54;;;;;;;7.00;4.53;;;33.80;48.60;;;;;;5137862;27;20026;-78
2022/08/09 10:12:31;;;;;;;6.10;4.57;;;33.70;50.60;;;;;;5119189;27;20050;-86
2022/08/09 10:15:14;;;;;;;6.75;4.50;;;33.70;50.30;;;;;;5119587;27;20034;-76
2022/08/09 10:17:43;;;;;;;7.50;4.80;;;33.00;48.90;;;;;;5137787;27;20026;-77
2022/08/09 10:20:20;;;;;;;5.78;4.78;;;32.70;51.90;;;;;;5137693;27;20019;-77
2022/08/09 10:22:52;;;;;;;6.22;4.55;;;33.40;49.80;;;;;;5137116;27;20058;-79
2022/08/09 10:25:19;;;;;;;5.53;4.43;;;34.00;49.40;;;;;;5137479;27;20027;-78
2022/08/09 10:27:45;;;;;;;6.50;4.30;;;34.50;48.10;;;;;;5137210;27;20385;-78
2022/08/09 10:30:13;;;;;;;6.05;4.85;;;34.50;48.30;;;;;;5137680;27;20019;-79
2022/08/09 10:32:39;;;;;;;6.82;4.68;;;34.60;49.30;;;;;;5137225;27;20034;-76
2022/08/09 10:35:07;;;;;;;6.22;4.60;;;34.80;49.80;;;;;;5137357;27;20057;-78
2022/08/09 10:37:33;;;;;;;5.43;4.30;;;34.90;48.60;;;;;;5118781;27;20072;-82
2022/08/09 10:39:59;;;;;;;6.63;4.63;;;34.50;48.30;;;;;;5119160;27;20031;-79
2022/08/09 10:42:25;;;;;;;6.35;4.40;;;34.40;48.70;;;;;;5137495;27;20028;-77
2022/08/09 10:45:12;;;;;;;5.70;4.22;;;34.20;49.10;;;;;;5118647;27;20068;-78
2022/08/09 10:47:56;;;;;;;8.15;4.72;;;34.60;49.70;;;;;;5137302;27;20492;-77
2022/08/09 10:53:58;;;;;;;5.43;4.20;;;34.80;47.70;;;;;;5137052;27;20057;-81
2022/08/09 10:56:29;;;;;;;7.05;4.32;;;34.80;48.50;;;;;;5136812;27;20170;-77
2022/08/09 10:58:58;;;;;;;5.00;4.30;;;35.00;47.90;;;;;;5118637;27;20031;-76
2022/08/09 11:01:34;;;;;;;6.25;4.10;;;34.80;48.90;;;;;;5136576;27;20026;-82
2022/08/09 11:04:08;;;;;;;5.90;4.70;;;35.10;47.70;;;;;;5136564;27;20027;-77
2022/08/09 11:06:39;;;;;;;6.53;4.05;;;35.10;47.90;;;;;;5136567;27;20035;-77
2022/08/09 11:09:06;;;;;;;7.50;4.07;;;35.10;47.00;;;;;;5136301;27;20015;-77
2022/08/09 11:11:54;;;;;;;6.57;4.10;;;35.10;47.10;;;;;;5118011;27;20030;-76
2022/08/09 11:14:32;;;;;;;5.20;4.10;;;35.20;47.20;;;;;;5136652;27;20031;-75
2022/08/09 11:16:59;;;;;;;9.45;3.70;;;35.20;46.50;;;;;;5117917;27;20037;-89
2022/08/09 11:19:50;;;;;;;6.20;4.28;;;35.10;46.60;;;;;;5136914;27;20023;-79
2022/08/09 11:22:16;;;;;;;5.38;4.20;;;34.50;47.50;;;;;;5136599;27;20027;-79
2022/08/09 11:25:01;;;;;;;6.00;4.30;;;34.70;47.20;;;;;;5136301;27;20370;-77
2022/08/09 11:27:30;;;;;;;5.57;4.30;;;34.70;47.70;;;;;;5136345;27;20023;-79
2022/08/09 11:29:56;;;;;;;5.30;4.10;;;34.90;47.30;;;;;;5136391;27;20019;-80
2022/08/09 11:32:43;;;;;;;5.32;3.72;;;35.10;46.40;;;;;;5136684;27;20020;-79
2022/08/09 11:35:21;;;;;;;5.93;4.03;;;34.90;46.50;;;;;;5117843;27;20215;-78
2022/08/09 11:37:49;;;;;;;6.50;4.90;;;35.00;47.50;;;;;;5136054;27;20016;-78
2022/08/09 11:40:28;;;;;;;6.97;4.32;;;35.40;46.60;;;;;;5136242;27;20386;-78
2022/08/09 11:42:56;;;;;;;5.07;3.92;;;35.70;46.30;;;;;;5136204;27;20022;-79
2022/08/09 11:45:37;;;;;;;5.15;4.38;;;35.80;46.20;;;;;;5136036;27;20030;-80
2022/08/09 11:48:29;;;;;;;5.35;4.20;;;36.00;46.50;;;;;;5135662;27;20038;-78
2022/08/09 11:51:00;;;;;;;6.32;4.32;;;36.20;46.10;;;;;;5135645;27;20596;-78
2022/08/09 11:53:36;;;;;;;5.88;4.30;;;35.70;45.30;;;;;;5117424;27;20501;-80
2022/08/09 11:56:14;;;;;;;5.10;4.10;;;35.40;46.60;;;;;;5135183;27;20110;-77
2022/08/09 11:58:58;;;;;;;6.13;4.40;;;35.50;47.20;;;;;;5135417;27;20414;-76
2022/08/09 12:01:36;;;;;;;5.85;3.90;;;35.40;47.00;;;;;;5116951;27;20069;-78
2022/08/09 12:04:07;;;;;;;5.30;4.30;;;35.00;45.60;;;;;;5136106;27;20023;-78
2022/08/09 12:06:34;;;;;;;5.57;3.80;;;34.30;46.40;;;;;;5135377;27;20050;-77
2022/08/09 12:09:03;;;;;;;6.45;3.67;;;34.50;46.90;;;;;;5117029;27;20023;-79
2022/08/09 12:11:29;;;;;;;5.50;4.00;;;35.00;46.40;;;;;;5135729;27;20030;-79
2022/08/09 12:13:58;;;;;;;7.20;4.30;;;34.90;45.60;;;;;;5135763;27;20027;-77
2022/08/09 12:16:30;;;;;;;7.45;4.10;;;34.90;46.60;;;;;;5134544;27;20015;-79
2022/08/09 12:18:56;;;;;;;6.18;4.10;;;35.10;46.00;;;;;;5135407;27;20024;-79
2022/08/09 12:21:25;;;;;;;5.97;4.00;;;35.30;46.80;;;;;;5116982;27;20079;-79
2022/08/09 12:23:52;;;;;;;5.35;3.92;;;35.20;46.40;;;;;;5134769;27;20422;-78
2022/08/09 12:26:18;;;;;;;5.13;3.90;;;35.40;46.40;;;;;;5116493;27;20046;-76
2022/08/09 12:28:48;;;;;;;6.13;3.90;;;35.30;45.60;;;;;;5135287;27;20106;-78
2022/08/09 12:31:26;;;;;;;6.22;3.90;;;35.50;46.30;;;;;;5134912;27;20019;-79
2022/08/09 12:33:53;;;;;;;4.90;4.00;;;35.80;46.40;;;;;;5134848;27;20031;-77
2022/08/09 12:36:19;;;;;;;4.85;4.00;;;35.80;46.30;;;;;;5134756;27;20050;-78
2022/08/09 12:38:45;;;;;;;5.63;4.18;;;35.50;45.10;;;;;;5134855;27;20027;-79
2022/08/09 12:41:11;;;;;;;6.93;4.10;;;35.60;45.60;;;;;;5134498;27;20041;-77
2022/08/09 12:43:38;;;;;;;5.25;3.70;;;35.80;45.40;;;;;;5134765;27;20015;-79
2022/08/09 12:46:06;;;;;;;5.60;3.90;;;35.90;45.60;;;;;;5134929;27;20027;-78
2022/08/09 12:48:32;;;;;;;4.70;3.78;;;35.90;44.90;;;;;;5134740;27;20019;-79
2022/08/09 12:50:58;;;;;;;5.70;3.88;;;36.10;45.70;;;;;;5134423;27;20177;-78
2022/08/09 12:53:36;;;;;;;5.28;4.10;;;36.40;45.20;;;;;;5134986;27;20034;-78
2022/08/09 12:56:15;;;;;;;24.52;5.03;;;36.50;44.90;;;;;;5134364;27;20022;-79